sensor_id;sensor_type;location;lat;lon;timestamp;P1;durP1;ratioP1;P2;durP2;ratioP2
71106;SDS011;58763;47.982;11.516;2022-10-23T00:00:55;4.32;;;1.83;;
71106;SDS011;58763;47.982;11.516;2022-10-23T00:03:21;5.53;;;2.10;;
71106;SDS011;58763;47.982;11.516;2022-10-23T00:05:47;3.50;;;1.23;;
71106;SDS011;58763;47.982;11.516;2022-10-23T00:08:12;1.73;;;0.70;;
71106;SDS011;58763;47.982;11.516;2022-10-23T00:10:39;1.33;;;0.50;;
71106;SDS011;58763;47.982;11.516;2022-10-23T00:13:06;2.00;;;0.50;;
71106;SDS011;58763;47.982;11.516;2022-10-23T00:15:33;1.58;;;0.60;;
71106;SDS011;58763;47.982;11.516;2022-10-23T00:17:59;3.05;;;0.73;;
71106;SDS011;58763;47.982;11.516;2022-10-23T00:20:25;2.95;;;1.00;;
71106;SDS011;58763;47.982;11.516;2022-10-23T00:22:51;2.15;;;0.93;;
71106;SDS011;58763;47.982;11.516;2022-10-23T00:25:17;2.97;;;0.90;;
71106;SDS011;58763;47.982;11.516;2022-10-23T00:27:43;1.83;;;0.80;;
71106;SDS011;58763;47.982;11.516;2022-10-23T00:30:09;1.95;;;0.80;;
71106;SDS011;58763;47.982;11.516;2022-10-23T00:32:35;1.63;;;0.77;;
71106;SDS011;58763;47.982;11.516;2022-10-23T00:35:00;2.20;;;1.00;;
71106;SDS011;58763;47.982;11.516;2022-10-23T00:37:26;2.55;;;0.80;;
71106;SDS011;58763;47.982;11.516;2022-10-23T00:39:52;2.20;;;0.80;;
71106;SDS011;58763;47.982;11.516;2022-10-23T00:42:18;2.58;;;0.50;;
71106;SDS011;58763;47.982;11.516;2022-10-23T00:47:11;1.38;;;0.60;;
71106;SDS011;58763;47.982;11.516;2022-10-23T00:49:37;3.80;;;0.70;;
71106;SDS011;58763;47.982;11.516;2022-10-23T00:52:04;3.42;;;0.88;;
71106;SDS011;58763;47.982;11.516;2022-10-23T00:54:33;2.00;;;0.77;;
71106;SDS011;58763;47.982;11.516;2022-10-23T00:57:06;2.42;;;0.95;;
71106;SDS011;58763;47.982;11.516;2022-10-23T00:59:38;3.85;;;1.05;;
71106;SDS011;58763;47.982;11.516;2022-10-23T01:02:04;3.70;;;1.38;;
71106;SDS011;58763;47.982;11.516;2022-10-23T01:04:30;2.78;;;1.42;;
71106;SDS011;58763;47.982;11.516;2022-10-23T01:09:40;2.92;;;1.40;;
71106;SDS011;58763;47.982;11.516;2022-10-23T01:13:05;3.83;;;2.30;;
71106;SDS011;58763;47.982;11.516;2022-10-23T01:15:42;3.70;;;2.50;;
71106;SDS011;58763;47.982;11.516;2022-10-23T01:21:27;3.63;;;1.55;;
71106;SDS011;58763;47.982;11.516;2022-10-23T01:26:39;2.97;;;1.42;;
71106;SDS011;58763;47.982;11.516;2022-10-23T01:31:58;4.18;;;1.27;;
71106;SDS011;58763;47.982;11.516;2022-10-23T01:37:20;2.92;;;0.77;;
71106;SDS011;58763;47.982;11.516;2022-10-23T01:39:54;4.85;;;0.77;;
71106;SDS011;58763;47.982;11.516;2022-10-23T01:42:27;4.45;;;1.40;;
71106;SDS011;58763;47.982;11.516;2022-10-23T01:45:02;5.38;;;1.65;;
71106;SDS011;58763;47.982;11.516;2022-10-23T01:47:33;3.30;;;0.93;;
71106;SDS011;58763;47.982;11.516;2022-10-23T01:50:00;1.75;;;0.73;;
71106;SDS011;58763;47.982;11.516;2022-10-23T01:52:27;3.35;;;0.90;;
71106;SDS011;58763;47.982;11.516;2022-10-23T01:54:53;1.70;;;0.70;;
71106;SDS011;58763;47.982;11.516;2022-10-23T01:57:23;2.35;;;0.63;;
71106;SDS011;58763;47.982;11.516;2022-10-23T01:59:52;1.20;;;0.57;;
71106;SDS011;58763;47.982;11.516;2022-10-23T02:02:22;2.58;;;0.90;;
71106;SDS011;58763;47.982;11.516;2022-10-23T02:07:38;3.33;;;1.10;;
71106;SDS011;58763;47.982;11.516;2022-10-23T02:10:05;4.25;;;0.60;;
71106;SDS011;58763;47.982;11.516;2022-10-23T02:15:02;1.90;;;0.57;;
71106;SDS011;58763;47.982;11.516;2022-10-23T02:17:37;1.58;;;0.60;;
71106;SDS011;58763;47.982;11.516;2022-10-23T02:20:27;2.05;;;0.68;;
71106;SDS011;58763;47.982;11.516;2022-10-23T02:23:02;1.42;;;0.50;;
71106;SDS011;58763;47.982;11.516;2022-10-23T02:25:53;1.85;;;0.50;;
71106;SDS011;58763;47.982;11.516;2022-10-23T02:28:32;1.50;;;0.50;;
71106;SDS011;58763;47.982;11.516;2022-10-23T02:31:13;1.88;;;0.68;;
71106;SDS011;58763;47.982;11.516;2022-10-23T02:33:40;1.55;;;0.40;;
71106;SDS011;58763;47.982;11.516;2022-10-23T02:36:08;1.50;;;0.57;;
71106;SDS011;58763;47.982;11.516;2022-10-23T02:38:35;1.02;;;0.50;;
71106;SDS011;58763;47.982;11.516;2022-10-23T02:41:52;2.17;;;0.80;;
71106;SDS011;58763;47.982;11.516;2022-10-23T02:49:15;4.82;;;1.52;;
71106;SDS011;58763;47.982;11.516;2022-10-23T02:54:53;3.40;;;1.27;;
71106;SDS011;58763;47.982;11.516;2022-10-23T02:57:55;5.85;;;1.67;;
71106;SDS011;58763;47.982;11.516;2022-10-23T03:00:28;3.70;;;1.30;;
71106;SDS011;58763;47.982;11.516;2022-10-23T03:02:57;3.25;;;1.40;;
71106;SDS011;58763;47.982;11.516;2022-10-23T03:05:27;2.50;;;1.38;;
71106;SDS011;58763;47.982;11.516;2022-10-23T03:07:57;3.20;;;1.50;;
71106;SDS011;58763;47.982;11.516;2022-10-23T03:10:22;2.60;;;1.30;;
71106;SDS011;58763;47.982;11.516;2022-10-23T03:12:48;3.08;;;1.40;;
71106;SDS011;58763;47.982;11.516;2022-10-23T03:15:14;5.78;;;1.30;;
71106;SDS011;58763;47.982;11.516;2022-10-23T03:17:41;5.68;;;1.75;;
71106;SDS011;58763;47.982;11.516;2022-10-23T03:20:07;4.07;;;1.50;;
71106;SDS011;58763;47.982;11.516;2022-10-23T03:22:33;4.10;;;1.50;;
71106;SDS011;58763;47.982;11.516;2022-10-23T03:24:58;2.95;;;1.55;;
71106;SDS011;58763;47.982;11.516;2022-10-23T03:27:24;4.15;;;1.90;;
71106;SDS011;58763;47.982;11.516;2022-10-23T03:29:49;3.95;;;1.42;;
71106;SDS011;58763;47.982;11.516;2022-10-23T03:32:15;2.15;;;1.05;;
71106;SDS011;58763;47.982;11.516;2022-10-23T03:34:41;1.88;;;0.80;;
71106;SDS011;58763;47.982;11.516;2022-10-23T03:37:07;1.02;;;0.55;;
71106;SDS011;58763;47.982;11.516;2022-10-23T03:39:33;1.00;;;0.50;;
71106;SDS011;58763;47.982;11.516;2022-10-23T03:41:58;2.63;;;0.63;;
71106;SDS011;58763;47.982;11.516;2022-10-23T03:44:24;3.05;;;0.75;;
71106;SDS011;58763;47.982;11.516;2022-10-23T03:46:49;3.05;;;0.90;;
71106;SDS011;58763;47.982;11.516;2022-10-23T03:49:15;1.77;;;0.80;;
71106;SDS011;58763;47.982;11.516;2022-10-23T03:51:40;1.58;;;0.52;;
71106;SDS011;58763;47.982;11.516;2022-10-23T03:54:07;2.22;;;0.90;;
71106;SDS011;58763;47.982;11.516;2022-10-23T03:56:33;2.97;;;1.13;;
71106;SDS011;58763;47.982;11.516;2022-10-23T03:58:58;2.70;;;1.20;;
71106;SDS011;58763;47.982;11.516;2022-10-23T04:01:24;2.25;;;1.10;;
71106;SDS011;58763;47.982;11.516;2022-10-23T04:03:50;1.90;;;0.70;;
71106;SDS011;58763;47.982;11.516;2022-10-23T04:06:16;1.65;;;0.82;;
71106;SDS011;58763;47.982;11.516;2022-10-23T04:08:42;1.23;;;0.50;;
71106;SDS011;58763;47.982;11.516;2022-10-23T04:11:08;1.58;;;0.70;;
71106;SDS011;58763;47.982;11.516;2022-10-23T04:13:34;2.00;;;0.70;;
71106;SDS011;58763;47.982;11.516;2022-10-23T04:16:00;1.55;;;0.70;;
71106;SDS011;58763;47.982;11.516;2022-10-23T04:18:26;3.00;;;0.70;;
71106;SDS011;58763;47.982;11.516;2022-10-23T04:20:51;1.33;;;0.60;;
71106;SDS011;58763;47.982;11.516;2022-10-23T04:23:17;2.30;;;0.93;;
71106;SDS011;58763;47.982;11.516;2022-10-23T04:25:43;1.73;;;0.90;;
71106;SDS011;58763;47.982;11.516;2022-10-23T04:28:08;1.40;;;0.70;;
71106;SDS011;58763;47.982;11.516;2022-10-23T04:30:34;2.05;;;1.00;;
71106;SDS011;58763;47.982;11.516;2022-10-23T04:32:59;3.20;;;1.30;;
71106;SDS011;58763;47.982;11.516;2022-10-23T04:35:25;4.40;;;1.83;;
71106;SDS011;58763;47.982;11.516;2022-10-23T04:37:50;2.78;;;1.73;;
71106;SDS011;58763;47.982;11.516;2022-10-23T04:40:16;2.20;;;1.20;;
71106;SDS011;58763;47.982;11.516;2022-10-23T04:42:41;1.90;;;0.90;;
71106;SDS011;58763;47.982;11.516;2022-10-23T04:45:07;2.08;;;1.00;;
71106;SDS011;58763;47.982;11.516;2022-10-23T04:47:33;3.00;;;1.90;;
71106;SDS011;58763;47.982;11.516;2022-10-23T04:49:59;2.22;;;1.30;;
71106;SDS011;58763;47.982;11.516;2022-10-23T04:52:24;2.17;;;0.95;;
71106;SDS011;58763;47.982;11.516;2022-10-23T04:54:50;2.22;;;0.60;;
71106;SDS011;58763;47.982;11.516;2022-10-23T04:57:17;2.05;;;0.60;;
71106;SDS011;58763;47.982;11.516;2022-10-23T04:59:42;1.48;;;0.60;;
71106;SDS011;58763;47.982;11.516;2022-10-23T05:02:08;1.00;;;0.43;;
71106;SDS011;58763;47.982;11.516;2022-10-23T05:04:33;1.75;;;0.47;;
71106;SDS011;58763;47.982;11.516;2022-10-23T05:06:59;1.83;;;0.75;;
71106;SDS011;58763;47.982;11.516;2022-10-23T05:09:25;2.58;;;0.60;;
71106;SDS011;58763;47.982;11.516;2022-10-23T05:11:50;6.72;;;0.98;;
71106;SDS011;58763;47.982;11.516;2022-10-23T05:14:16;3.28;;;1.13;;
71106;SDS011;58763;47.982;11.516;2022-10-23T05:16:49;2.90;;;1.50;;
71106;SDS011;58763;47.982;11.516;2022-10-23T05:19:19;2.05;;;0.95;;
71106;SDS011;58763;47.982;11.516;2022-10-23T05:21:48;1.63;;;0.80;;
71106;SDS011;58763;47.982;11.516;2022-10-23T05:24:20;1.95;;;0.70;;
71106;SDS011;58763;47.982;11.516;2022-10-23T05:26:46;1.52;;;0.60;;
71106;SDS011;58763;47.982;11.516;2022-10-23T05:29:12;1.17;;;0.60;;
71106;SDS011;58763;47.982;11.516;2022-10-23T05:31:38;1.30;;;0.50;;
71106;SDS011;58763;47.982;11.516;2022-10-23T05:34:03;2.30;;;0.60;;
71106;SDS011;58763;47.982;11.516;2022-10-23T05:36:30;1.30;;;0.50;;
71106;SDS011;58763;47.982;11.516;2022-10-23T05:38:56;1.95;;;0.60;;
71106;SDS011;58763;47.982;11.516;2022-10-23T05:41:22;1.35;;;0.55;;
71106;SDS011;58763;47.982;11.516;2022-10-23T05:43:48;1.05;;;0.50;;
71106;SDS011;58763;47.982;11.516;2022-10-23T05:46:13;2.35;;;0.70;;
71106;SDS011;58763;47.982;11.516;2022-10-23T05:48:39;3.55;;;0.90;;
71106;SDS011;58763;47.982;11.516;2022-10-23T05:51:05;1.98;;;0.73;;
71106;SDS011;58763;47.982;11.516;2022-10-23T05:53:32;2.83;;;1.17;;
71106;SDS011;58763;47.982;11.516;2022-10-23T05:56:04;2.78;;;1.50;;
71106;SDS011;58763;47.982;11.516;2022-10-23T05:58:31;2.30;;;0.90;;
71106;SDS011;58763;47.982;11.516;2022-10-23T06:00:57;1.48;;;0.60;;
71106;SDS011;58763;47.982;11.516;2022-10-23T06:03:22;2.58;;;1.10;;
71106;SDS011;58763;47.982;11.516;2022-10-23T06:05:48;1.30;;;0.73;;
71106;SDS011;58763;47.982;11.516;2022-10-23T06:08:14;1.70;;;0.70;;
71106;SDS011;58763;47.982;11.516;2022-10-23T06:10:40;1.27;;;0.47;;
71106;SDS011;58763;47.982;11.516;2022-10-23T06:13:05;2.85;;;0.82;;
71106;SDS011;58763;47.982;11.516;2022-10-23T06:15:31;1.20;;;0.60;;
71106;SDS011;58763;47.982;11.516;2022-10-23T06:18:00;1.83;;;0.70;;
71106;SDS011;58763;47.982;11.516;2022-10-23T06:20:26;1.80;;;0.70;;
71106;SDS011;58763;47.982;11.516;2022-10-23T06:22:52;1.65;;;0.50;;
71106;SDS011;58763;47.982;11.516;2022-10-23T06:25:17;1.27;;;0.50;;
71106;SDS011;58763;47.982;11.516;2022-10-23T06:27:43;1.88;;;0.60;;
71106;SDS011;58763;47.982;11.516;2022-10-23T06:30:08;1.38;;;0.52;;
71106;SDS011;58763;47.982;11.516;2022-10-23T06:32:34;1.15;;;0.60;;
71106;SDS011;58763;47.982;11.516;2022-10-23T06:35:00;2.28;;;1.33;;
71106;SDS011;58763;47.982;11.516;2022-10-23T06:37:25;2.45;;;1.50;;
71106;SDS011;58763;47.982;11.516;2022-10-23T06:39:51;2.20;;;1.10;;
71106;SDS011;58763;47.982;11.516;2022-10-23T06:42:16;2.60;;;1.00;;
71106;SDS011;58763;47.982;11.516;2022-10-23T06:44:42;2.65;;;1.60;;
71106;SDS011;58763;47.982;11.516;2022-10-23T06:47:07;3.40;;;2.28;;
71106;SDS011;58763;47.982;11.516;2022-10-23T06:49:35;4.38;;;3.10;;
71106;SDS011;58763;47.982;11.516;2022-10-23T06:52:00;3.55;;;1.50;;
71106;SDS011;58763;47.982;11.516;2022-10-23T06:54:26;2.05;;;0.80;;
71106;SDS011;58763;47.982;11.516;2022-10-23T06:56:51;2.03;;;0.80;;
71106;SDS011;58763;47.982;11.516;2022-10-23T06:59:17;1.75;;;0.80;;
71106;SDS011;58763;47.982;11.516;2022-10-23T07:01:43;1.33;;;0.70;;
71106;SDS011;58763;47.982;11.516;2022-10-23T07:04:09;1.30;;;0.70;;
71106;SDS011;58763;47.982;11.516;2022-10-23T07:06:37;1.73;;;0.80;;
71106;SDS011;58763;47.982;11.516;2022-10-23T07:09:03;1.55;;;0.65;;
71106;SDS011;58763;47.982;11.516;2022-10-23T07:11:29;3.88;;;0.68;;
71106;SDS011;58763;47.982;11.516;2022-10-23T07:13:54;1.50;;;0.77;;
71106;SDS011;58763;47.982;11.516;2022-10-23T07:16:20;2.85;;;1.80;;
71106;SDS011;58763;47.982;11.516;2022-10-23T07:18:48;2.40;;;1.30;;
71106;SDS011;58763;47.982;11.516;2022-10-23T07:21:22;2.17;;;0.80;;
71106;SDS011;58763;47.982;11.516;2022-10-23T07:23:48;1.80;;;0.45;;
71106;SDS011;58763;47.982;11.516;2022-10-23T07:26:14;2.17;;;0.77;;
71106;SDS011;58763;47.982;11.516;2022-10-23T07:28:41;3.15;;;0.90;;
71106;SDS011;58763;47.982;11.516;2022-10-23T07:31:08;1.48;;;0.77;;
71106;SDS011;58763;47.982;11.516;2022-10-23T07:33:34;2.20;;;0.65;;
71106;SDS011;58763;47.982;11.516;2022-10-23T07:35:59;1.50;;;0.55;;
71106;SDS011;58763;47.982;11.516;2022-10-23T07:38:25;1.42;;;0.47;;
71106;SDS011;58763;47.982;11.516;2022-10-23T07:40:51;1.88;;;0.47;;
71106;SDS011;58763;47.982;11.516;2022-10-23T07:43:18;0.93;;;0.40;;
71106;SDS011;58763;47.982;11.516;2022-10-23T07:45:45;1.35;;;0.70;;
71106;SDS011;58763;47.982;11.516;2022-10-23T07:48:12;1.38;;;0.55;;
71106;SDS011;58763;47.982;11.516;2022-10-23T07:50:38;1.20;;;0.43;;
71106;SDS011;58763;47.982;11.516;2022-10-23T07:53:03;1.70;;;0.60;;
71106;SDS011;58763;47.982;11.516;2022-10-23T07:55:28;1.55;;;0.50;;
71106;SDS011;58763;47.982;11.516;2022-10-23T07:57:54;3.20;;;0.73;;
71106;SDS011;58763;47.982;11.516;2022-10-23T08:00:19;1.40;;;0.57;;
71106;SDS011;58763;47.982;11.516;2022-10-23T08:02:45;1.33;;;0.40;;
71106;SDS011;58763;47.982;11.516;2022-10-23T08:05:11;1.27;;;0.55;;
71106;SDS011;58763;47.982;11.516;2022-10-23T08:07:36;1.42;;;0.40;;
71106;SDS011;58763;47.982;11.516;2022-10-23T08:10:02;1.45;;;0.50;;
71106;SDS011;58763;47.982;11.516;2022-10-23T08:12:28;1.90;;;0.50;;
71106;SDS011;58763;47.982;11.516;2022-10-23T08:14:54;1.88;;;0.50;;
71106;SDS011;58763;47.982;11.516;2022-10-23T08:17:19;1.65;;;0.50;;
71106;SDS011;58763;47.982;11.516;2022-10-23T08:19:44;1.83;;;0.60;;
71106;SDS011;58763;47.982;11.516;2022-10-23T08:22:12;3.20;;;0.70;;
71106;SDS011;58763;47.982;11.516;2022-10-23T08:24:38;1.42;;;0.50;;
71106;SDS011;58763;47.982;11.516;2022-10-23T08:27:04;1.48;;;0.50;;
71106;SDS011;58763;47.982;11.516;2022-10-23T08:29:31;1.98;;;0.63;;
71106;SDS011;58763;47.982;11.516;2022-10-23T08:31:56;1.50;;;0.65;;
71106;SDS011;58763;47.982;11.516;2022-10-23T08:34:22;1.65;;;0.60;;
71106;SDS011;58763;47.982;11.516;2022-10-23T08:36:48;2.30;;;0.90;;
71106;SDS011;58763;47.982;11.516;2022-10-23T08:39:14;1.90;;;0.88;;
71106;SDS011;58763;47.982;11.516;2022-10-23T08:41:47;1.88;;;0.65;;
71106;SDS011;58763;47.982;11.516;2022-10-23T08:44:18;2.40;;;0.55;;
71106;SDS011;58763;47.982;11.516;2022-10-23T08:47:10;1.70;;;0.50;;
71106;SDS011;58763;47.982;11.516;2022-10-23T08:49:44;1.80;;;0.65;;
71106;SDS011;58763;47.982;11.516;2022-10-23T08:52:19;1.30;;;0.50;;
71106;SDS011;58763;47.982;11.516;2022-10-23T08:57:23;1.08;;;0.50;;
71106;SDS011;58763;47.982;11.516;2022-10-23T08:59:59;1.65;;;0.47;;
71106;SDS011;58763;47.982;11.516;2022-10-23T09:02:37;0.90;;;0.40;;
71106;SDS011;58763;47.982;11.516;2022-10-23T09:05:03;1.80;;;0.47;;
71106;SDS011;58763;47.982;11.516;2022-10-23T09:07:41;1.17;;;0.32;;
71106;SDS011;58763;47.982;11.516;2022-10-23T09:10:32;1.70;;;0.30;;
71106;SDS011;58763;47.982;11.516;2022-10-23T09:13:29;2.88;;;0.47;;
71106;SDS011;58763;47.982;11.516;2022-10-23T09:16:10;2.58;;;0.60;;
71106;SDS011;58763;47.982;11.516;2022-10-23T09:18:39;1.65;;;0.50;;
71106;SDS011;58763;47.982;11.516;2022-10-23T09:21:09;2.33;;;0.40;;
71106;SDS011;58763;47.982;11.516;2022-10-23T09:23:35;2.20;;;0.50;;
71106;SDS011;58763;47.982;11.516;2022-10-23T09:26:00;1.75;;;0.40;;
71106;SDS011;58763;47.982;11.516;2022-10-23T09:28:34;2.03;;;0.30;;
71106;SDS011;58763;47.982;11.516;2022-10-23T09:31:07;1.33;;;0.38;;
71106;SDS011;58763;47.982;11.516;2022-10-23T09:33:33;0.88;;;0.30;;
71106;SDS011;58763;47.982;11.516;2022-10-23T09:36:05;1.98;;;0.50;;
71106;SDS011;58763;47.982;11.516;2022-10-23T09:38:46;1.95;;;0.40;;
71106;SDS011;58763;47.982;11.516;2022-10-23T09:46:53;1.02;;;0.40;;
71106;SDS011;58763;47.982;11.516;2022-10-23T09:49:24;1.85;;;0.50;;
71106;SDS011;58763;47.982;11.516;2022-10-23T09:51:53;1.30;;;0.40;;
71106;SDS011;58763;47.982;11.516;2022-10-23T09:54:24;1.05;;;0.30;;
71106;SDS011;58763;47.982;11.516;2022-10-23T09:56:52;1.20;;;0.32;;
71106;SDS011;58763;47.982;11.516;2022-10-23T10:01:59;1.00;;;0.25;;
71106;SDS011;58763;47.982;11.516;2022-10-23T10:06:58;0.37;;;0.20;;
71106;SDS011;58763;47.982;11.516;2022-10-23T10:09:26;0.70;;;0.22;;
71106;SDS011;58763;47.982;11.516;2022-10-23T10:11:53;0.40;;;0.20;;
71106;SDS011;58763;47.982;11.516;2022-10-23T10:28:22;0.70;;;0.20;;
71106;SDS011;58763;47.982;11.516;2022-10-23T10:33:48;0.88;;;0.30;;
71106;SDS011;58763;47.982;11.516;2022-10-23T10:41:57;1.13;;;0.20;;
71106;SDS011;58763;47.982;11.516;2022-10-23T10:47:13;3.05;;;0.43;;
71106;SDS011;58763;47.982;11.516;2022-10-23T10:49:58;0.57;;;0.20;;
71106;SDS011;58763;47.982;11.516;2022-10-23T10:52:30;2.35;;;0.22;;
71106;SDS011;58763;47.982;11.516;2022-10-23T10:57:48;0.47;;;0.20;;
71106;SDS011;58763;47.982;11.516;2022-10-23T11:00:21;1.17;;;0.40;;
71106;SDS011;58763;47.982;11.516;2022-10-23T11:02:52;0.75;;;0.20;;
71106;SDS011;58763;47.982;11.516;2022-10-23T11:05:45;1.77;;;0.17;;
71106;SDS011;58763;47.982;11.516;2022-10-23T11:08:20;0.52;;;0.20;;
71106;SDS011;58763;47.982;11.516;2022-10-23T11:10:57;0.68;;;0.22;;
71106;SDS011;58763;47.982;11.516;2022-10-23T11:16:19;0.85;;;0.20;;
71106;SDS011;58763;47.982;11.516;2022-10-23T11:18:53;6.10;;;0.30;;
71106;SDS011;58763;47.982;11.516;2022-10-23T11:38:34;1.30;;;0.30;;
71106;SDS011;58763;47.982;11.516;2022-10-23T11:41:03;1.52;;;0.30;;
71106;SDS011;58763;47.982;11.516;2022-10-23T11:48:51;0.20;;;0.10;;
71106;SDS011;58763;47.982;11.516;2022-10-23T11:53:51;0.95;;;0.30;;
71106;SDS011;58763;47.982;11.516;2022-10-23T11:58:47;1.10;;;0.20;;
71106;SDS011;58763;47.982;11.516;2022-10-23T12:06:39;0.50;;;0.10;;
71106;SDS011;58763;47.982;11.516;2022-10-23T12:16:57;0.57;;;0.20;;
71106;SDS011;58763;47.982;11.516;2022-10-23T12:19:24;1.13;;;0.20;;
71106;SDS011;58763;47.982;11.516;2022-10-23T12:21:53;0.90;;;0.20;;
71106;SDS011;58763;47.982;11.516;2022-10-23T12:38:10;1.13;;;0.30;;
71106;SDS011;58763;47.982;11.516;2022-10-23T12:43:22;1.92;;;0.30;;
71106;SDS011;58763;47.982;11.516;2022-10-23T12:45:54;1.90;;;0.20;;
71106;SDS011;58763;47.982;11.516;2022-10-23T12:48:25;0.75;;;0.20;;
71106;SDS011;58763;47.982;11.516;2022-10-23T12:50:52;1.83;;;0.20;;
71106;SDS011;58763;47.982;11.516;2022-10-23T12:53:19;0.55;;;0.20;;
71106;SDS011;58763;47.982;11.516;2022-10-23T12:55:56;0.63;;;0.30;;
71106;SDS011;58763;47.982;11.516;2022-10-23T12:58:28;2.17;;;0.43;;
71106;SDS011;58763;47.982;11.516;2022-10-23T13:01:00;1.40;;;0.22;;
71106;SDS011;58763;47.982;11.516;2022-10-23T13:03:28;3.70;;;0.40;;
71106;SDS011;58763;47.982;11.516;2022-10-23T13:05:55;0.77;;;0.30;;
71106;SDS011;58763;47.982;11.516;2022-10-23T13:08:34;1.83;;;0.32;;
71106;SDS011;58763;47.982;11.516;2022-10-23T13:11:04;1.38;;;0.40;;
71106;SDS011;58763;47.982;11.516;2022-10-23T13:13:30;0.85;;;0.30;;
71106;SDS011;58763;47.982;11.516;2022-10-23T13:15:56;1.02;;;0.20;;
71106;SDS011;58763;47.982;11.516;2022-10-23T13:18:22;1.23;;;0.32;;
71106;SDS011;58763;47.982;11.516;2022-10-23T13:23:16;0.85;;;0.20;;
71106;SDS011;58763;47.982;11.516;2022-10-23T13:25:55;0.95;;;0.30;;
71106;SDS011;58763;47.982;11.516;2022-10-23T13:28:23;1.73;;;0.20;;
71106;SDS011;58763;47.982;11.516;2022-10-23T13:31:28;0.98;;;0.20;;
71106;SDS011;58763;47.982;11.516;2022-10-23T13:33:47;1.02;;;0.30;;
71106;SDS011;58763;47.982;11.516;2022-10-23T13:36:28;0.68;;;0.20;;
71106;SDS011;58763;47.982;11.516;2022-10-23T13:41:27;1.27;;;0.20;;
71106;SDS011;58763;47.982;11.516;2022-10-23T13:43:58;1.73;;;0.40;;
71106;SDS011;58763;47.982;11.516;2022-10-23T13:46:23;1.80;;;0.30;;
71106;SDS011;58763;47.982;11.516;2022-10-23T13:48:50;1.75;;;0.40;;
71106;SDS011;58763;47.982;11.516;2022-10-23T13:51:19;1.60;;;0.30;;
71106;SDS011;58763;47.982;11.516;2022-10-23T13:53:47;2.55;;;0.30;;
71106;SDS011;58763;47.982;11.516;2022-10-23T13:56:14;1.60;;;0.47;;
71106;SDS011;58763;47.982;11.516;2022-10-23T13:58:42;1.92;;;0.40;;
71106;SDS011;58763;47.982;11.516;2022-10-23T14:01:50;1.98;;;0.47;;
71106;SDS011;58763;47.982;11.516;2022-10-23T14:03:58;4.80;;;0.60;;
71106;SDS011;58763;47.982;11.516;2022-10-23T14:06:24;3.42;;;0.43;;
71106;SDS011;58763;47.982;11.516;2022-10-23T14:08:50;1.02;;;0.40;;
71106;SDS011;58763;47.982;11.516;2022-10-23T14:11:16;2.10;;;0.38;;
71106;SDS011;58763;47.982;11.516;2022-10-23T14:13:43;2.72;;;0.45;;
71106;SDS011;58763;47.982;11.516;2022-10-23T14:16:10;2.20;;;0.30;;
71106;SDS011;58763;47.982;11.516;2022-10-23T14:18:37;1.65;;;0.35;;
71106;SDS011;58763;47.982;11.516;2022-10-23T14:21:04;3.00;;;0.50;;
71106;SDS011;58763;47.982;11.516;2022-10-23T14:23:32;2.50;;;0.40;;
71106;SDS011;58763;47.982;11.516;2022-10-23T14:26:04;1.80;;;0.30;;
71106;SDS011;58763;47.982;11.516;2022-10-23T14:28:31;2.40;;;0.35;;
71106;SDS011;58763;47.982;11.516;2022-10-23T14:30:57;1.30;;;0.30;;
71106;SDS011;58763;47.982;11.516;2022-10-23T14:33:27;4.75;;;0.55;;
71106;SDS011;58763;47.982;11.516;2022-10-23T14:35:52;3.13;;;0.50;;
71106;SDS011;58763;47.982;11.516;2022-10-23T14:38:18;4.70;;;0.50;;
71106;SDS011;58763;47.982;11.516;2022-10-23T14:40:44;1.42;;;0.40;;
71106;SDS011;58763;47.982;11.516;2022-10-23T14:43:09;4.40;;;1.10;;
71106;SDS011;58763;47.982;11.516;2022-10-23T14:45:35;2.92;;;1.17;;
71106;SDS011;58763;47.982;11.516;2022-10-23T14:48:01;4.20;;;1.35;;
71106;SDS011;58763;47.982;11.516;2022-10-23T14:50:28;3.45;;;0.80;;
71106;SDS011;58763;47.982;11.516;2022-10-23T14:52:56;2.35;;;0.68;;
71106;SDS011;58763;47.982;11.516;2022-10-23T14:55:21;3.17;;;0.70;;
71106;SDS011;58763;47.982;11.516;2022-10-23T14:57:47;2.75;;;0.90;;
71106;SDS011;58763;47.982;11.516;2022-10-23T15:00:12;2.17;;;0.70;;
71106;SDS011;58763;47.982;11.516;2022-10-23T15:02:38;2.55;;;0.57;;
71106;SDS011;58763;47.982;11.516;2022-10-23T15:05:04;2.63;;;0.70;;
71106;SDS011;58763;47.982;11.516;2022-10-23T15:07:30;1.92;;;0.60;;
71106;SDS011;58763;47.982;11.516;2022-10-23T15:09:55;8.25;;;0.93;;
71106;SDS011;58763;47.982;11.516;2022-10-23T15:12:21;2.20;;;0.90;;
71106;SDS011;58763;47.982;11.516;2022-10-23T15:14:47;3.25;;;0.98;;
71106;SDS011;58763;47.982;11.516;2022-10-23T15:17:12;2.97;;;0.80;;
71106;SDS011;58763;47.982;11.516;2022-10-23T15:19:38;6.38;;;1.30;;
71106;SDS011;58763;47.982;11.516;2022-10-23T15:22:03;2.95;;;1.00;;
71106;SDS011;58763;47.982;11.516;2022-10-23T15:24:29;2.40;;;0.88;;
71106;SDS011;58763;47.982;11.516;2022-10-23T15:26:54;3.08;;;0.88;;
71106;SDS011;58763;47.982;11.516;2022-10-23T15:29:21;2.67;;;0.98;;
71106;SDS011;58763;47.982;11.516;2022-10-23T15:31:48;3.25;;;0.90;;
71106;SDS011;58763;47.982;11.516;2022-10-23T15:34:19;4.28;;;0.98;;
71106;SDS011;58763;47.982;11.516;2022-10-23T15:36:48;4.30;;;1.13;;
71106;SDS011;58763;47.982;11.516;2022-10-23T15:39:15;3.58;;;1.25;;
71106;SDS011;58763;47.982;11.516;2022-10-23T15:41:43;3.92;;;1.70;;
71106;SDS011;58763;47.982;11.516;2022-10-23T15:44:13;2.78;;;1.17;;
71106;SDS011;58763;47.982;11.516;2022-10-23T15:46:40;4.90;;;1.45;;
71106;SDS011;58763;47.982;11.516;2022-10-23T15:49:07;5.60;;;1.88;;
71106;SDS011;58763;47.982;11.516;2022-10-23T15:51:34;5.32;;;1.95;;
71106;SDS011;58763;47.982;11.516;2022-10-23T15:54:01;3.03;;;1.00;;
71106;SDS011;58763;47.982;11.516;2022-10-23T15:56:27;5.45;;;1.60;;
71106;SDS011;58763;47.982;11.516;2022-10-23T15:58:53;5.28;;;1.50;;
71106;SDS011;58763;47.982;11.516;2022-10-23T16:01:18;4.57;;;1.02;;
71106;SDS011;58763;47.982;11.516;2022-10-23T16:03:44;5.50;;;1.23;;
71106;SDS011;58763;47.982;11.516;2022-10-23T16:06:11;3.42;;;0.73;;
71106;SDS011;58763;47.982;11.516;2022-10-23T16:08:38;2.50;;;0.80;;
71106;SDS011;58763;47.982;11.516;2022-10-23T16:11:09;2.35;;;0.75;;
71106;SDS011;58763;47.982;11.516;2022-10-23T16:13:41;3.53;;;0.93;;
71106;SDS011;58763;47.982;11.516;2022-10-23T16:16:07;5.47;;;0.70;;
71106;SDS011;58763;47.982;11.516;2022-10-23T16:18:33;3.97;;;0.70;;
71106;SDS011;58763;47.982;11.516;2022-10-23T16:20:59;3.28;;;1.30;;
71106;SDS011;58763;47.982;11.516;2022-10-23T16:23:24;5.72;;;1.73;;
71106;SDS011;58763;47.982;11.516;2022-10-23T16:25:52;3.90;;;1.63;;
71106;SDS011;58763;47.982;11.516;2022-10-23T16:28:18;5.30;;;1.80;;
71106;SDS011;58763;47.982;11.516;2022-10-23T16:30:44;5.82;;;1.30;;
71106;SDS011;58763;47.982;11.516;2022-10-23T16:33:10;4.47;;;1.90;;
71106;SDS011;58763;47.982;11.516;2022-10-23T16:35:37;4.55;;;1.75;;
71106;SDS011;58763;47.982;11.516;2022-10-23T16:38:03;3.70;;;1.52;;
71106;SDS011;58763;47.982;11.516;2022-10-23T16:40:29;1.88;;;0.65;;
71106;SDS011;58763;47.982;11.516;2022-10-23T16:42:56;2.58;;;0.43;;
71106;SDS011;58763;47.982;11.516;2022-10-23T16:45:22;3.47;;;0.77;;
71106;SDS011;58763;47.982;11.516;2022-10-23T16:47:48;3.33;;;0.88;;
71106;SDS011;58763;47.982;11.516;2022-10-23T16:50:13;3.58;;;0.80;;
71106;SDS011;58763;47.982;11.516;2022-10-23T16:52:39;2.30;;;0.80;;
71106;SDS011;58763;47.982;11.516;2022-10-23T16:55:05;6.15;;;0.80;;
71106;SDS011;58763;47.982;11.516;2022-10-23T16:57:33;1.98;;;0.60;;